الصفحة الرئيسية
METAR-TAF:

METAR-TAF

مطار :

نوميا / La Tontouta, نيو كاليدونيا

دائرة عرض: 22-01S, خط طول: 166-13E, ارتفاع: 16 متر

مراقبة الطقس الحالي

تاريخ ووقت الإصدار 22 دقيقة قبل الساعة 18:00UTC
رياح هادئة
درجة الحرارة 21°درجة مئوية
الرطوبة 88%
ضغط 1013 hPa
الرؤية 10 كم أو أكثر

METAR: NWWW 161800Z AUTO 00000KT 9999 NCD 21/19 Q1013 TEMPO 4000 SHRA BKN014 FEW018TCU

زمن: 05:22 (18:22 UTC)

توقعات

تاريخ ووقت الإصدار 1ساعة و 22 دقيقة قبل الساعة 17:00UTC
التوقعات صالحة من16 الساعة 18 UTC إلى 17 الساعة 18 UTC
ريح 8 عقدة من الجنوب الشرقي
الرؤية 10 كم أو أكثر
غيوم مفككة على ارتفاع 4000 قدم
مؤقت
من 16 الساعة 18 UTC إلى 17 الساعة 18 UTC
الرؤية: 4000 متر
غيوم مفككة على ارتفاع 1400 قدم
غيوم قليلة على ارتفاع 1800 قدم, مزن ركامية عمودية.
زخات من المطر
نظرية الاحتمالات 30% :
مؤقت
من 16 الساعة 20 UTC إلى 17 الساعة 07 UTC
الرؤية: 1800 متر
غيوم متفرقة على ارتفاع 1800 قدم, مزنة ركامية.
زخات من المطر

TAF: NWWW 161700Z 1618/1718 14008KT 9999 BKN040 TEMPO 1618/1718 4000 SHRA BKN014 FEW018TCU PROB30 TEMPO 1620/1707 1800 SHRA SCT018CB

أرصاد الطقس والتوقعات من أكثر من 4000 مطار (تقارير الطقس للمطار METAR والتنبؤ بالطقس بالمطارTAF).

المحطات المتاحة هي النقط الصفراء والحمراء على الخريطة.

حرك المؤشر فوق النقطة لمعرفة اسم المحطة.

ثم انقر لمعرفة أرصاد وتوقعات الطقس.

لتغيير الخارطة: اضغط على الأزرار الخضراء مع رمز الصليب الأسود للتكبير. على الزر الأخضر مع شرطة للتصغير، أو على الأسهم الخضراء للخرائط المجاورة.


METAR-TAF: